Oakville, Iowa
Current Conditions -  °F | °C
As of 7:35 AM on Sunday 23 Nov 2014 (Local Time) from KMUT Reporting Station
Light Rain Light Rain  
Wind Chill: 50°   Ceiling: 1600
Heat Index: 50°   Visibility: 3mi
Dew Point: 48°   Wind: 9mph
Humidity: 94%   Direction: 140°SE
Pressure: 29.63"   Gusts: NA
Location:  41.1°N, 91.04°W
Report Text: KMUT 231335Z AUTO 14008KT 3SM -RA BKN016 OVC021 10/09 A2963 RMK AO2
Loading
Personal Weather Stations






























Interactive Weather Map New forecast layout! Learn more

10-Day Weather Forecast

Advertisements
Track Severe Weather on mobile